Time;durP1;ratioP1;P1;durP2;ratioP2;P2;SDS_P1;SDS_P2;PMS_P1;PMS_P2;Temp;Humidity;BMP_temperature;BMP_pressure;BME280_temperature;BME280_humidity;BME280_pressure;Samples;Min_cycle;Max_cycle;Signal;HPM_P1;HPM_P2
2024/02/24 00:01:17;;;;;;;2.25;0.80;;;7.40;99.90;;;;;;4096563;28;20032;-66
2024/02/24 00:03:18;;;;;;;1.90;0.80;;;7.40;99.90;;;;;;4098224;28;20113;-72
2024/02/24 00:05:19;;;;;;;2.00;0.88;;;7.40;99.90;;;;;;4096575;28;20472;-66
2024/02/24 00:07:19;;;;;;;3.28;1.30;;;7.30;99.90;;;;;;4094380;28;20090;-66
2024/02/24 00:09:20;;;;;;;2.50;1.00;;;7.30;99.90;;;;;;4096618;28;20031;-69
2024/02/24 00:11:20;;;;;;;2.35;0.85;;;7.30;99.90;;;;;;4095408;28;20038;-66
2024/02/24 00:13:21;;;;;;;1.48;0.77;;;7.20;99.90;;;;;;4093034;28;20448;-67
2024/02/24 00:15:22;;;;;;;1.75;0.75;;;7.20;99.90;;;;;;4094973;28;20417;-66
2024/02/24 00:17:22;;;;;;;2.00;1.05;;;7.20;99.90;;;;;;4095888;28;20032;-69
2024/02/24 00:19:23;;;;;;;4.78;0.95;;;7.20;99.90;;;;;;4096648;28;20043;-66
2024/02/24 00:21:23;;;;;;;1.58;0.82;;;7.20;99.90;;;;;;4078349;29;20506;-66
2024/02/24 00:23:24;;;;;;;3.05;0.80;;;7.10;99.90;;;;;;4094513;28;20127;-66
2024/02/24 00:25:24;;;;;;;2.50;0.95;;;7.10;99.90;;;;;;4091996;28;20523;-66
2024/02/24 00:27:25;;;;;;;2.28;1.00;;;7.10;99.90;;;;;;4093207;28;20138;-66
2024/02/24 00:29:26;;;;;;;2.78;1.08;;;7.20;99.90;;;;;;4093219;28;20092;-68
2024/02/24 00:31:26;;;;;;;1.92;1.23;;;7.10;99.90;;;;;;4095748;28;20024;-67
2024/02/24 00:33:27;;;;;;;1.85;0.90;;;7.10;99.90;;;;;;4093494;28;20392;-66
2024/02/24 00:35:28;;;;;;;2.65;1.27;;;7.10;99.90;;;;;;4090234;28;20334;-67
2024/02/24 00:37:29;;;;;;;4.55;0.90;;;7.10;99.90;;;;;;4096389;28;20031;-66
2024/02/24 00:39:30;;;;;;;1.88;0.90;;;7.10;99.90;;;;;;4097051;28;20035;-66
2024/02/24 00:41:31;;;;;;;1.33;0.80;;;7.00;99.90;;;;;;4096522;28;20027;-66
2024/02/24 00:43:32;;;;;;;4.43;1.15;;;7.00;99.90;;;;;;4096834;28;20493;-66
2024/02/24 00:45:32;;;;;;;2.15;0.98;;;7.00;99.90;;;;;;4092949;28;20294;-66
2024/02/24 00:47:33;;;;;;;6.63;1.02;;;7.10;99.90;;;;;;4096847;28;20042;-67
2024/02/24 00:49:33;;;;;;;1.20;0.85;;;7.10;99.90;;;;;;4094176;28;20122;-67
2024/02/24 00:51:34;;;;;;;1.85;0.70;;;7.10;99.90;;;;;;4078700;28;20032;-68
2024/02/24 00:53:34;;;;;;;2.83;0.88;;;7.10;99.90;;;;;;4094683;28;20531;-67
2024/02/24 00:55:35;;;;;;;1.20;0.60;;;7.00;99.90;;;;;;4091275;28;20046;-67
2024/02/24 00:57:36;;;;;;;1.08;0.77;;;7.10;99.90;;;;;;4094467;28;20051;-67
2024/02/24 00:59:36;;;;;;;1.88;0.70;;;7.10;99.90;;;;;;4098729;28;20142;-67
2024/02/24 01:01:37;;;;;;;3.45;0.80;;;7.10;99.90;;;;;;4094961;28;20497;-66
2024/02/24 01:03:37;;;;;;;2.22;1.10;;;7.00;99.90;;;;;;4096273;28;20047;-66
2024/02/24 01:05:41;;;;;;;1.08;0.60;;;7.10;99.90;;;;;;4095488;28;20059;-66
2024/02/24 01:07:42;;;;;;;1.17;0.75;;;7.00;99.90;;;;;;4094104;28;20054;-70
2024/02/24 01:09:42;;;;;;;2.17;0.80;;;7.10;99.90;;;;;;4097033;28;20032;-70
2024/02/24 01:11:43;;;;;;;1.52;0.82;;;7.00;99.90;;;;;;4094718;28;20046;-70
2024/02/24 01:13:43;;;;;;;1.55;0.90;;;7.00;99.90;;;;;;4095400;28;20035;-70
2024/02/24 01:15:44;;;;;;;1.08;0.52;;;7.00;99.90;;;;;;4105549;28;20525;-70
2024/02/24 01:17:45;;;;;;;1.50;0.80;;;7.00;99.90;;;;;;4078344;29;20096;-65
2024/02/24 01:19:45;;;;;;;1.10;0.50;;;7.10;99.90;;;;;;4095904;28;20131;-66
2024/02/24 01:21:46;;;;;;;1.20;0.77;;;7.00;99.90;;;;;;4095496;28;20098;-66
2024/02/24 01:23:47;;;;;;;1.15;0.70;;;7.00;99.90;;;;;;4097393;28;20130;-65
2024/02/24 01:25:47;;;;;;;3.20;0.65;;;7.00;99.90;;;;;;4082861;28;20549;-66
2024/02/24 01:27:49;;;;;;;0.77;0.65;;;7.00;99.90;;;;;;4079510;29;20039;-67
2024/02/24 01:29:50;;;;;;;4.05;0.63;;;7.00;99.90;;;;;;4093872;28;20043;-66
2024/02/24 01:31:50;;;;;;;2.05;0.77;;;7.00;99.90;;;;;;4093729;28;20549;-66
2024/02/24 01:33:51;;;;;;;2.45;0.80;;;7.00;99.90;;;;;;4100474;28;20098;-69
2024/02/24 01:35:51;;;;;;;1.55;0.68;;;7.00;99.90;;;;;;4094633;28;20050;-66
2024/02/24 01:37:52;;;;;;;1.88;0.95;;;7.00;99.90;;;;;;4096516;28;20237;-67
2024/02/24 01:39:52;;;;;;;1.48;0.75;;;7.00;99.90;;;;;;4095615;28;20042;-66
2024/02/24 01:41:53;;;;;;;1.00;0.63;;;7.00;99.90;;;;;;4094627;28;20073;-66
2024/02/24 01:43:54;;;;;;;2.53;0.90;;;7.00;99.90;;;;;;4096230;28;20101;-65
2024/02/24 01:45:55;;;;;;;1.75;0.80;;;7.00;99.90;;;;;;4094788;28;20039;-66
2024/02/24 01:47:56;;;;;;;0.85;0.50;;;7.00;99.90;;;;;;4095949;28;20070;-68
2024/02/24 01:49:58;;;;;;;1.13;0.70;;;6.90;99.90;;;;;;4095039;28;20036;-67
2024/02/24 01:51:59;;;;;;;2.65;0.65;;;6.90;99.90;;;;;;4077742;29;20091;-66
2024/02/24 01:54:00;;;;;;;1.77;0.55;;;7.00;99.90;;;;;;4094233;28;20031;-66
2024/02/24 01:56:02;;;;;;;2.75;1.02;;;7.00;99.90;;;;;;4095286;28;20090;-69
2024/02/24 01:58:03;;;;;;;2.45;0.70;;;7.00;99.90;;;;;;4089586;28;20031;-66
2024/02/24 02:00:04;;;;;;;1.98;0.60;;;7.00;99.90;;;;;;4093968;28;20050;-67
2024/02/24 02:02:05;;;;;;;1.80;0.82;;;7.00;99.90;;;;;;4094858;28;20118;-66
2024/02/24 02:04:07;;;;;;;2.30;0.70;;;6.90;99.90;;;;;;4090932;28;20046;-67
2024/02/24 02:06:08;;;;;;;0.60;0.50;;;6.90;99.90;;;;;;4082693;28;20039;-66
2024/02/24 02:08:08;;;;;;;1.83;0.70;;;6.90;99.90;;;;;;4085249;28;20493;-66
2024/02/24 02:10:09;;;;;;;2.40;0.85;;;6.90;99.90;;;;;;4094004;28;20035;-67
2024/02/24 02:12:09;;;;;;;1.48;0.73;;;6.80;99.90;;;;;;4098364;28;20238;-65
2024/02/24 02:14:11;;;;;;;1.98;0.80;;;6.90;99.90;;;;;;4095994;28;20042;-66
2024/02/24 02:16:12;;;;;;;3.20;0.80;;;6.80;99.90;;;;;;4094961;28;20047;-66
2024/02/24 02:18:12;;;;;;;0.88;0.60;;;6.90;99.90;;;;;;4091683;28;20513;-68
2024/02/24 02:20:13;;;;;;;0.93;0.50;;;6.90;99.90;;;;;;4092851;28;20405;-68
2024/02/24 02:22:18;;;;;;;2.30;0.60;;;6.80;99.90;;;;;;4097123;28;20843;-69
2024/02/24 02:24:18;;;;;;;0.98;0.55;;;6.80;99.90;;;;;;4095437;28;20385;-69
2024/02/24 02:26:19;;;;;;;1.65;0.63;;;6.90;99.90;;;;;;4094425;28;20028;-69
2024/02/24 02:28:20;;;;;;;0.40;0.40;;;6.90;99.90;;;;;;4077735;29;20043;-66
2024/02/24 02:30:20;;;;;;;0.43;0.43;;;6.90;99.90;;;;;;4091670;28;20584;-66
2024/02/24 02:32:21;;;;;;;2.03;0.60;;;6.90;99.90;;;;;;4094559;28;20378;-67
2024/02/24 02:34:21;;;;;;;1.05;0.60;;;6.90;99.90;;;;;;4094866;28;20089;-67
2024/02/24 02:36:22;;;;;;;0.90;0.60;;;6.90;99.90;;;;;;4092718;28;20154;-67
2024/02/24 02:38:23;;;;;;;0.95;0.70;;;6.90;99.90;;;;;;4094528;28;20039;-66
2024/02/24 02:40:23;;;;;;;3.70;0.95;;;6.90;99.90;;;;;;4076398;29;20040;-68
2024/02/24 02:42:24;;;;;;;0.85;0.60;;;6.80;99.90;;;;;;4096216;28;20039;-67
2024/02/24 02:44:24;;;;;;;2.90;0.68;;;6.80;99.90;;;;;;4095265;28;20054;-66
2024/02/24 02:46:25;;;;;;;2.22;0.77;;;6.80;99.90;;;;;;4094981;28;20037;-67
2024/02/24 02:48:25;;;;;;;1.00;0.60;;;6.80;99.90;;;;;;4093728;28;20063;-66
2024/02/24 02:50:26;;;;;;;0.77;0.50;;;6.80;99.90;;;;;;4095203;28;20031;-67
2024/02/24 02:52:27;;;;;;;2.05;0.80;;;6.80;99.90;;;;;;4092217;28;20090;-66
2024/02/24 02:54:28;;;;;;;1.33;0.70;;;6.80;99.90;;;;;;4095015;28;20039;-68
2024/02/24 02:56:28;;;;;;;1.33;0.90;;;6.80;99.90;;;;;;4096648;28;20488;-66
2024/02/24 02:58:29;;;;;;;0.85;0.52;;;6.70;99.90;;;;;;4094248;28;20050;-66
2024/02/24 03:00:29;;;;;;;1.40;0.88;;;6.80;99.90;;;;;;4092592;28;20129;-66
2024/02/24 03:02:30;;;;;;;1.77;0.88;;;6.80;99.90;;;;;;4092101;28;20030;-67
2024/02/24 03:04:31;;;;;;;0.88;0.50;;;6.70;99.90;;;;;;4094174;28;20051;-65
2024/02/24 03:06:32;;;;;;;1.60;0.77;;;6.80;99.90;;;;;;4076873;29;20111;-67
2024/02/24 03:08:33;;;;;;;1.65;0.60;;;6.80;99.90;;;;;;4094464;28;20036;-65
2024/02/24 03:10:34;;;;;;;0.93;0.60;;;6.80;99.90;;;;;;4096305;28;20046;-68
2024/02/24 03:12:34;;;;;;;0.63;0.50;;;6.80;99.90;;;;;;4102978;28;20399;-65
2024/02/24 03:14:35;;;;;;;1.63;0.80;;;6.80;99.90;;;;;;4095125;28;20505;-66
2024/02/24 03:16:36;;;;;;;0.82;0.50;;;6.80;99.90;;;;;;4093510;28;20039;-68
2024/02/24 03:18:37;;;;;;;1.10;0.60;;;6.80;99.90;;;;;;4089684;28;20497;-67
2024/02/24 03:20:37;;;;;;;1.65;0.70;;;6.70;99.90;;;;;;4094911;28;20102;-66
2024/02/24 03:22:38;;;;;;;0.77;0.50;;;6.80;99.90;;;;;;4092053;28;20035;-66
2024/02/24 03:24:42;;;;;;;1.48;0.60;;;6.80;99.90;;;;;;4092561;28;20083;-65
2024/02/24 03:26:43;;;;;;;0.90;0.70;;;6.80;99.90;;;;;;4093381;28;20042;-65
2024/02/24 03:28:43;;;;;;;2.55;0.80;;;6.80;99.90;;;;;;4094426;28;20136;-68
2024/02/24 03:30:44;;;;;;;1.38;0.80;;;6.90;99.90;;;;;;4093519;28;20039;-69
2024/02/24 03:32:44;;;;;;;1.67;0.75;;;6.80;99.90;;;;;;4094459;28;20040;-69
2024/02/24 03:34:45;;;;;;;1.60;0.60;;;6.90;99.90;;;;;;4094611;28;20034;-69
2024/02/24 03:36:46;;;;;;;1.20;0.65;;;6.90;99.90;;;;;;4089985;28;20023;-68
2024/02/24 03:38:46;;;;;;;0.85;0.60;;;6.90;99.90;;;;;;4094532;28;20031;-66
2024/02/24 03:40:47;;;;;;;1.25;0.60;;;6.90;99.90;;;;;;4092983;28;20028;-66
2024/02/24 03:42:47;;;;;;;0.80;0.70;;;6.90;99.90;;;;;;4090949;28;20039;-66
2024/02/24 03:44:48;;;;;;;1.33;0.60;;;6.90;99.90;;;;;;4096008;28;20045;-66
2024/02/24 03:46:48;;;;;;;1.67;0.80;;;6.80;99.90;;;;;;4090877;28;20077;-66
2024/02/24 03:48:49;;;;;;;1.90;0.90;;;6.80;99.90;;;;;;4094083;28;20385;-67
2024/02/24 03:50:50;;;;;;;1.05;0.70;;;6.80;99.90;;;;;;4093216;28;20038;-68
2024/02/24 03:52:50;;;;;;;1.58;0.65;;;6.80;99.90;;;;;;4093765;28;20405;-66
2024/02/24 03:54:51;;;;;;;1.80;1.00;;;6.80;99.90;;;;;;4091604;28;20446;-66
2024/02/24 03:56:52;;;;;;;1.25;0.93;;;6.80;99.90;;;;;;4093672;28;20481;-66
2024/02/24 03:58:52;;;;;;;0.93;0.55;;;6.80;99.90;;;;;;4093779;28;20440;-67
2024/02/24 04:00:53;;;;;;;0.80;0.55;;;6.80;99.90;;;;;;4091685;28;20148;-66
2024/02/24 04:02:53;;;;;;;1.98;0.93;;;6.80;99.90;;;;;;4093031;28;20527;-67
2024/02/24 04:04:54;;;;;;;0.98;0.70;;;6.80;99.90;;;;;;4095118;28;20107;-67
2024/02/24 04:06:54;;;;;;;1.00;0.65;;;6.80;99.90;;;;;;4092158;28;20091;-66
2024/02/24 04:08:55;;;;;;;1.20;0.52;;;6.80;99.90;;;;;;4093906;28;20035;-66
2024/02/24 04:10:55;;;;;;;0.88;0.68;;;6.80;99.90;;;;;;4093372;28;20126;-65
2024/02/24 04:12:56;;;;;;;1.48;0.70;;;6.80;99.90;;;;;;4094326;28;20035;-67
2024/02/24 04:14:57;;;;;;;2.53;0.90;;;6.80;99.90;;;;;;4083356;29;20112;-66
2024/02/24 04:16:57;;;;;;;1.55;0.68;;;6.80;99.90;;;;;;4099470;28;20457;-68
2024/02/24 04:18:58;;;;;;;1.20;0.50;;;6.80;99.90;;;;;;4102310;28;20484;-67
2024/02/24 04:20:59;;;;;;;0.80;0.50;;;6.90;99.90;;;;;;4095030;28;20080;-68
2024/02/24 04:22:59;;;;;;;0.63;0.57;;;6.80;99.90;;;;;;4096890;28;20070;-66
2024/02/24 04:25:00;;;;;;;3.05;0.70;;;6.90;99.90;;;;;;4092375;28;20046;-66
2024/02/24 04:27:01;;;;;;;2.17;0.65;;;6.90;99.90;;;;;;4093979;28;20031;-66
2024/02/24 04:29:01;;;;;;;2.17;0.70;;;6.90;99.90;;;;;;4093813;28;20036;-67
2024/02/24 04:31:02;;;;;;;0.90;0.50;;;6.90;99.90;;;;;;4097182;28;20051;-67
2024/02/24 04:33:03;;;;;;;0.65;0.50;;;6.90;99.90;;;;;;4097050;28;20039;-65
2024/02/24 04:35:04;;;;;;;0.95;0.50;;;6.90;99.90;;;;;;4079529;29;20036;-67
2024/02/24 04:37:04;;;;;;;0.55;0.55;;;6.90;99.90;;;;;;4078830;29;20055;-66
2024/02/24 04:39:05;;;;;;;1.23;0.60;;;7.00;99.90;;;;;;4092383;28;20158;-67
2024/02/24 04:41:05;;;;;;;0.95;0.55;;;7.00;99.90;;;;;;4095954;28;20038;-66
2024/02/24 04:43:06;;;;;;;1.15;0.60;;;7.00;99.90;;;;;;4096082;28;20054;-66
2024/02/24 04:45:07;;;;;;;1.10;0.60;;;7.00;99.90;;;;;;4096619;28;20036;-69
2024/02/24 04:47:08;;;;;;;1.48;0.75;;;7.00;99.90;;;;;;4091548;28;20028;-66
2024/02/24 04:49:08;;;;;;;2.17;0.82;;;7.00;99.90;;;;;;4097418;28;20557;-68
2024/02/24 04:51:09;;;;;;;1.60;0.60;;;7.00;99.90;;;;;;4078063;29;20055;-68
2024/02/24 04:53:10;;;;;;;1.15;0.65;;;7.00;99.90;;;;;;4095762;28;20128;-69
2024/02/24 04:55:10;;;;;;;1.73;0.60;;;7.10;99.90;;;;;;4091221;28;20042;-69
2024/02/24 04:57:11;;;;;;;1.20;0.50;;;7.10;99.90;;;;;;4096884;28;20425;-68
2024/02/24 04:59:11;;;;;;;4.13;0.90;;;7.10;99.90;;;;;;4093943;28;20375;-68
2024/02/24 05:01:12;;;;;;;0.70;0.50;;;7.00;99.90;;;;;;4088874;28;20083;-69
2024/02/24 05:03:13;;;;;;;0.80;0.60;;;7.00;99.90;;;;;;4089656;28;20035;-69
2024/02/24 05:05:13;;;;;;;1.02;0.70;;;7.10;99.90;;;;;;4103177;28;20043;-68
2024/02/24 05:07:14;;;;;;;1.70;0.80;;;7.00;99.90;;;;;;4097060;28;20350;-69
2024/02/24 05:09:15;;;;;;;0.73;0.50;;;7.10;99.90;;;;;;4094245;28;20024;-68
2024/02/24 05:11:15;;;;;;;1.77;0.90;;;7.10;99.90;;;;;;4094645;28;20032;-65
2024/02/24 05:13:16;;;;;;;1.92;0.90;;;7.10;99.90;;;;;;4093616;28;20037;-68
2024/02/24 05:15:17;;;;;;;1.13;0.73;;;7.10;99.90;;;;;;4097799;28;20631;-66
2024/02/24 05:17:18;;;;;;;4.43;0.80;;;7.10;99.90;;;;;;4094683;28;20107;-67
2024/02/24 05:19:18;;;;;;;1.75;0.70;;;7.10;99.90;;;;;;4096908;28;20032;-67
2024/02/24 05:21:22;;;;;;;1.52;0.80;;;7.10;99.90;;;;;;4095507;28;20040;-67
2024/02/24 05:23:22;;;;;;;1.40;0.75;;;7.10;99.90;;;;;;4096125;28;20039;-66
2024/02/24 05:25:23;;;;;;;0.90;0.80;;;7.10;99.90;;;;;;4093451;28;20035;-66
2024/02/24 05:27:24;;;;;;;1.73;0.90;;;7.10;99.90;;;;;;4094038;28;20131;-67
2024/02/24 05:29:24;;;;;;;0.88;0.70;;;7.10;99.90;;;;;;4095255;28;20050;-69
2024/02/24 05:31:25;;;;;;;1.83;0.80;;;7.10;99.90;;;;;;4091178;28;20040;-67
2024/02/24 05:33:25;;;;;;;2.15;0.65;;;7.10;99.90;;;;;;4093818;28;20033;-66
2024/02/24 05:35:26;;;;;;;2.00;0.90;;;7.10;99.90;;;;;;4095101;28;20035;-66
2024/02/24 05:37:27;;;;;;;2.10;0.98;;;7.10;99.90;;;;;;4092628;28;20039;-66
2024/02/24 05:39:27;;;;;;;1.02;0.70;;;7.10;99.90;;;;;;4094668;28;20614;-67
2024/02/24 05:41:28;;;;;;;0.93;0.75;;;7.00;99.90;;;;;;4092234;28;20374;-67
2024/02/24 05:43:32;;;;;;;1.42;0.70;;;7.10;99.90;;;;;;4094661;28;20039;-67
2024/02/24 05:45:33;;;;;;;2.00;1.00;;;7.20;99.90;;;;;;4093592;28;20138;-66
2024/02/24 05:47:33;;;;;;;1.27;0.82;;;7.10;99.90;;;;;;4092961;28;20440;-68
2024/02/24 05:49:34;;;;;;;1.58;0.63;;;7.10;99.90;;;;;;4094306;28;20489;-67
2024/02/24 05:51:34;;;;;;;1.75;0.50;;;7.10;99.90;;;;;;4090657;28;20058;-66
2024/02/24 05:53:36;;;;;;;0.75;0.65;;;7.20;99.90;;;;;;4090010;28;20031;-66
2024/02/24 05:55:37;;;;;;;1.00;0.73;;;7.20;99.90;;;;;;4092238;28;20058;-67
2024/02/24 05:57:37;;;;;;;3.83;1.00;;;7.20;99.90;;;;;;4091771;28;20031;-67
2024/02/24 05:59:38;;;;;;;1.00;0.60;;;7.20;99.90;;;;;;4094281;28;20043;-67
2024/02/24 06:01:38;;;;;;;1.38;0.90;;;7.20;99.90;;;;;;4091142;28;20555;-67
2024/02/24 06:03:39;;;;;;;1.38;0.50;;;7.20;99.90;;;;;;4095117;28;20533;-67
2024/02/24 06:05:40;;;;;;;2.15;0.70;;;7.20;99.90;;;;;;4093236;28;20087;-67
2024/02/24 06:07:40;;;;;;;2.00;0.80;;;7.20;99.90;;;;;;4090749;28;20078;-67
2024/02/24 06:09:41;;;;;;;1.08;0.80;;;7.20;99.90;;;;;;4093806;28;20110;-70
2024/02/24 06:11:41;;;;;;;0.82;0.52;;;7.20;99.90;;;;;;4093065;28;20525;-70
2024/02/24 06:13:42;;;;;;;0.88;0.57;;;7.20;99.90;;;;;;4093390;28;20031;-70
2024/02/24 06:15:43;;;;;;;0.82;0.45;;;7.20;99.90;;;;;;4088301;28;20028;-71
2024/02/24 06:17:43;;;;;;;1.40;0.70;;;7.20;99.90;;;;;;4086608;28;20054;-70
2024/02/24 06:19:44;;;;;;;1.83;0.55;;;7.20;99.90;;;;;;4094175;28;20050;-70
2024/02/24 06:21:44;;;;;;;2.67;0.85;;;7.20;99.90;;;;;;4080455;28;20046;-70
2024/02/24 06:23:45;;;;;;;1.25;0.50;;;7.20;99.90;;;;;;4090862;28;20118;-70
2024/02/24 06:25:45;;;;;;;2.05;0.70;;;7.10;99.90;;;;;;4092461;28;20034;-71
2024/02/24 06:27:46;;;;;;;0.70;0.50;;;7.10;99.90;;;;;;4085967;28;20095;-70
2024/02/24 06:29:47;;;;;;;1.20;0.50;;;7.10;99.90;;;;;;4086457;28;20135;-69
2024/02/24 06:31:47;;;;;;;2.13;0.82;;;7.10;99.90;;;;;;4086244;28;20798;-69
2024/02/24 06:33:48;;;;;;;1.08;0.52;;;7.10;99.90;;;;;;4088178;28;20386;-69
2024/02/24 06:35:49;;;;;;;1.85;0.80;;;7.00;99.90;;;;;;4093885;28;20031;-69
2024/02/24 06:37:49;;;;;;;0.68;0.60;;;7.00;99.90;;;;;;4076950;29;21610;-69
2024/02/24 06:39:50;;;;;;;1.77;0.40;;;7.00;99.90;;;;;;4090383;28;20063;-69
2024/02/24 06:41:50;;;;;;;1.80;0.80;;;7.10;99.90;;;;;;4103747;28;20107;-69
2024/02/24 06:43:51;;;;;;;0.40;0.30;;;7.10;99.90;;;;;;4089802;28;20038;-69
2024/02/24 06:45:52;;;;;;;1.48;0.85;;;7.10;99.90;;;;;;4090874;28;20043;-68
2024/02/24 06:47:52;;;;;;;0.85;0.60;;;7.10;99.90;;;;;;4086401;28;20134;-69
2024/02/24 06:49:53;;;;;;;0.95;0.70;;;7.10;99.90;;;;;;4064370;29;20094;-68
2024/02/24 06:51:54;;;;;;;3.00;0.75;;;7.10;99.90;;;;;;4093289;28;20123;-68
2024/02/24 06:53:55;;;;;;;1.10;0.75;;;7.10;99.90;;;;;;4094858;28;20130;-68
2024/02/24 06:55:55;;;;;;;1.25;0.70;;;7.10;99.90;;;;;;4089196;28;20039;-68
2024/02/24 06:57:56;;;;;;;3.28;0.60;;;7.10;99.90;;;;;;4083461;28;20520;-68
2024/02/24 06:59:57;;;;;;;0.60;0.45;;;7.20;99.90;;;;;;4093161;28;20039;-68
2024/02/24 07:01:57;;;;;;;1.40;0.90;;;7.10;99.90;;;;;;4093402;28;20048;-68
2024/02/24 07:03:58;;;;;;;1.50;0.65;;;7.20;99.90;;;;;;4094617;28;20058;-68
2024/02/24 07:06:00;;;;;;;1.67;0.80;;;7.20;99.90;;;;;;4093624;28;20114;-69
2024/02/24 07:08:01;;;;;;;0.88;0.57;;;7.10;99.90;;;;;;4092554;28;20116;-68
2024/02/24 07:10:04;;;;;;;1.33;0.88;;;7.10;99.90;;;;;;4093506;28;20047;-68
2024/02/24 07:12:05;;;;;;;1.77;0.80;;;7.10;99.90;;;;;;4093350;28;20464;-68
2024/02/24 07:14:06;;;;;;;2.25;1.00;;;7.10;99.90;;;;;;4095357;28;20409;-68
2024/02/24 07:16:08;;;;;;;0.85;0.70;;;7.10;99.90;;;;;;4094316;28;20134;-68
2024/02/24 07:18:08;;;;;;;1.33;0.82;;;7.10;99.90;;;;;;4094351;28;20039;-68
2024/02/24 07:20:10;;;;;;;3.30;1.00;;;7.10;99.90;;;;;;4077255;29;20075;-69
2024/02/24 07:22:13;;;;;;;1.52;0.80;;;7.20;99.90;;;;;;4093608;28;20047;-70
2024/02/24 07:24:14;;;;;;;2.92;0.98;;;7.20;99.90;;;;;;4092101;28;20047;-69
2024/02/24 07:26:14;;;;;;;1.45;0.93;;;7.20;99.90;;;;;;4094062;28;20051;-69
2024/02/24 07:28:15;;;;;;;1.95;0.85;;;7.20;99.90;;;;;;4093744;28;20027;-69
2024/02/24 07:30:16;;;;;;;1.25;0.75;;;7.20;99.90;;;;;;4093600;28;20525;-69
2024/02/24 07:32:16;;;;;;;1.73;0.82;;;7.30;99.90;;;;;;4095199;28;20039;-69
2024/02/24 07:34:17;;;;;;;2.05;1.13;;;7.20;99.90;;;;;;4089584;28;20122;-69
2024/02/24 07:36:17;;;;;;;1.35;0.80;;;7.30;99.90;;;;;;4093775;28;20039;-69
2024/02/24 07:38:18;;;;;;;2.08;0.75;;;7.30;99.90;;;;;;4095356;28;20098;-66
2024/02/24 07:40:18;;;;;;;1.55;0.68;;;7.30;99.90;;;;;;4089721;28;20042;-67
2024/02/24 07:42:20;;;;;;;3.05;0.77;;;7.30;99.90;;;;;;4093483;28;20504;-66
2024/02/24 07:44:20;;;;;;;2.60;0.88;;;7.30;99.90;;;;;;4093204;28;20035;-66
2024/02/24 07:46:31;;;;;;;2.00;1.02;;;7.30;99.90;;;;;;4093192;28;20426;-68
2024/02/24 07:48:31;;;;;;;1.77;0.90;;;7.30;99.90;;;;;;4072355;28;20028;-68
2024/02/24 07:50:32;;;;;;;1.60;1.10;;;7.30;99.90;;;;;;4077434;28;20107;-66
2024/02/24 07:52:32;;;;;;;2.03;1.30;;;7.30;99.90;;;;;;4075566;29;20028;-67
2024/02/24 07:54:33;;;;;;;2.17;1.27;;;7.30;99.90;;;;;;4079133;28;20028;-68
2024/02/24 07:56:33;;;;;;;1.52;1.00;;;7.30;99.90;;;;;;4073999;28;20044;-66
2024/02/24 07:58:34;;;;;;;2.72;1.70;;;7.30;99.90;;;;;;4066154;29;20036;-66
2024/02/24 08:00:35;;;;;;;2.90;1.70;;;7.30;99.90;;;;;;4101425;28;20046;-66
2024/02/24 08:02:36;;;;;;;2.08;1.10;;;7.30;99.90;;;;;;4092645;28;20344;-66
2024/02/24 08:04:37;;;;;;;1.40;0.95;;;7.30;99.90;;;;;;4085905;28;20044;-68
2024/02/24 08:06:37;;;;;;;2.80;1.13;;;7.30;99.90;;;;;;4096676;28;20564;-66
2024/02/24 08:08:38;;;;;;;1.88;1.08;;;7.30;99.90;;;;;;4097518;28;20493;-66
2024/02/24 08:10:38;;;;;;;3.80;1.60;;;7.30;99.90;;;;;;4081793;29;20151;-66
2024/02/24 08:12:39;;;;;;;1.20;0.95;;;7.30;99.90;;;;;;4097127;28;20035;-67
2024/02/24 08:14:40;;;;;;;2.75;1.35;;;7.30;99.90;;;;;;4097683;28;20034;-66
2024/02/24 08:16:41;;;;;;;2.25;1.40;;;7.30;99.90;;;;;;4096117;28;20563;-66
2024/02/24 08:18:41;;;;;;;2.22;1.30;;;7.30;99.90;;;;;;4098419;28;20058;-67
2024/02/24 08:20:42;;;;;;;2.10;1.23;;;7.30;99.90;;;;;;4095623;28;20039;-67
2024/02/24 08:22:43;;;;;;;1.75;1.13;;;7.30;99.90;;;;;;4096744;28;20087;-66
2024/02/24 08:24:44;;;;;;;2.38;1.10;;;7.30;99.90;;;;;;4098325;28;20043;-67
2024/02/24 08:26:45;;;;;;;4.93;1.65;;;7.30;99.90;;;;;;4095813;28;20645;-66
2024/02/24 08:28:45;;;;;;;1.60;0.90;;;7.20;99.90;;;;;;4096230;28;20118;-67
2024/02/24 08:30:46;;;;;;;2.25;0.93;;;7.20;99.90;;;;;;4097154;28;20051;-66
2024/02/24 08:32:47;;;;;;;1.70;0.90;;;7.20;99.90;;;;;;4096498;28;20687;-67
2024/02/24 08:34:47;;;;;;;1.33;0.60;;;7.10;99.90;;;;;;4098092;28;20042;-67
2024/02/24 08:36:49;;;;;;;0.75;0.50;;;7.00;99.90;;;;;;4094687;28;20074;-69
2024/02/24 08:38:49;;;;;;;2.35;0.75;;;7.00;99.90;;;;;;4100306;28;20035;-68
2024/02/24 08:40:50;;;;;;;2.22;0.80;;;7.00;99.90;;;;;;4093826;28;20035;-67
2024/02/24 08:42:51;;;;;;;2.30;0.70;;;7.00;99.90;;;;;;4096968;28;20035;-68
2024/02/24 08:44:51;;;;;;;2.10;0.60;;;6.90;99.90;;;;;;4098116;28;20189;-68
2024/02/24 08:46:52;;;;;;;1.50;0.70;;;6.90;99.90;;;;;;4095537;28;20050;-68
2024/02/24 08:48:54;;;;;;;1.65;0.40;;;7.00;99.90;;;;;;4096895;28;20842;-69
2024/02/24 08:50:54;;;;;;;1.52;0.60;;;7.00;99.90;;;;;;4096087;28;20454;-68
2024/02/24 08:52:55;;;;;;;1.08;0.63;;;7.00;99.90;;;;;;4096377;28;20077;-69
2024/02/24 08:54:55;;;;;;;2.92;0.52;;;7.00;99.90;;;;;;4079536;28;20031;-69
2024/02/24 08:56:56;;;;;;;0.47;0.30;;;7.00;99.90;;;;;;4067980;29;20059;-69
2024/02/24 08:58:56;;;;;;;1.05;0.57;;;7.00;99.90;;;;;;4087896;28;20090;-69
2024/02/24 09:00:58;;;;;;;1.20;0.30;;;6.90;99.90;;;;;;4085755;28;20034;-69
2024/02/24 09:02:58;;;;;;;1.08;0.65;;;7.00;99.90;;;;;;4087548;28;20039;-69
2024/02/24 09:04:59;;;;;;;1.92;0.40;;;7.00;99.90;;;;;;4087514;28;20039;-69
2024/02/24 09:06:59;;;;;;;0.73;0.50;;;7.00;99.90;;;;;;4094597;28;20090;-69
2024/02/24 09:09:00;;;;;;;0.43;0.40;;;7.00;99.90;;;;;;4094098;28;20335;-69
2024/02/24 09:11:01;;;;;;;1.17;0.52;;;7.00;99.90;;;;;;4093999;28;20501;-67
2024/02/24 09:13:01;;;;;;;0.75;0.35;;;6.90;99.90;;;;;;4091881;28;20421;-67
2024/02/24 09:15:03;;;;;;;2.28;0.52;;;6.90;99.90;;;;;;4092244;28;20027;-69
2024/02/24 09:17:04;;;;;;;0.73;0.60;;;6.90;99.90;;;;;;4094607;28;20039;-67
2024/02/24 09:19:04;;;;;;;0.30;0.28;;;6.80;99.90;;;;;;4094773;28;20035;-68
2024/02/24 09:21:09;;;;;;;1.13;0.47;;;6.80;99.90;;;;;;4088319;28;20103;-67
2024/02/24 09:23:09;;;;;;;1.17;0.68;;;6.80;99.90;;;;;;4092943;28;20132;-68
2024/02/24 09:25:16;;;;;;;0.30;0.30;;;6.80;99.90;;;;;;4093227;28;20035;-68
2024/02/24 09:27:17;;;;;;;1.08;0.60;;;6.80;99.90;;;;;;4095701;28;20039;-68
2024/02/24 09:29:18;;;;;;;0.93;0.60;;;6.80;99.90;;;;;;4092160;28;20035;-68
2024/02/24 09:31:19;;;;;;;1.60;0.40;;;6.80;99.90;;;;;;4094259;28;20027;-70
2024/02/24 09:33:19;;;;;;;1.08;0.50;;;6.70;99.90;;;;;;4093229;28;20363;-67
2024/02/24 09:35:21;;;;;;;1.05;0.50;;;6.70;99.90;;;;;;4095670;28;20043;-67
2024/02/24 09:37:21;;;;;;;0.90;0.52;;;6.70;99.90;;;;;;4069819;29;20028;-68
2024/02/24 09:39:22;;;;;;;1.67;0.50;;;6.60;99.90;;;;;;4088963;28;20085;-67
2024/02/24 09:41:23;;;;;;;0.68;0.50;;;6.60;99.90;;;;;;4091242;28;20043;-67
2024/02/24 09:43:23;;;;;;;0.90;0.55;;;6.60;99.90;;;;;;4092123;28;20039;-69
2024/02/24 09:45:26;;;;;;;0.77;0.60;;;6.60;99.90;;;;;;4096272;28;20369;-70
2024/02/24 09:47:27;;;;;;;1.10;0.43;;;6.60;99.90;;;;;;4098705;28;20039;-68
2024/02/24 09:49:30;;;;;;;1.08;0.60;;;6.60;99.90;;;;;;4094882;28;20174;-67
2024/02/24 09:51:33;;;;;;;1.23;0.60;;;6.60;99.90;;;;;;4097417;28;20031;-69
2024/02/24 09:53:33;;;;;;;1.42;0.57;;;6.60;99.90;;;;;;4093848;28;20027;-68
2024/02/24 09:55:37;;;;;;;2.20;0.93;;;6.70;99.90;;;;;;4095614;28;20039;-68
2024/02/24 09:57:39;;;;;;;1.70;0.80;;;6.60;99.90;;;;;;4096013;28;20453;-67
2024/02/24 09:59:42;;;;;;;1.83;0.80;;;6.70;99.90;;;;;;4096194;28;20126;-67
2024/02/24 10:01:45;;;;;;;;;;;6.70;99.90;;;;;;4095397;28;20480;-67
2024/02/24 10:03:48;;;;;;;4.53;0.93;;;6.70;99.90;;;;;;4093136;28;20001;-67
2024/02/24 10:05:49;;;;;;;3.53;1.00;;;6.70;99.90;;;;;;4092624;28;20035;-67
2024/02/24 10:07:49;;;;;;;4.45;1.00;;;6.80;99.90;;;;;;4099814;28;20058;-67
2024/02/24 10:09:50;;;;;;;0.93;0.70;;;6.80;99.90;;;;;;4095512;28;20035;-69
2024/02/24 10:11:50;;;;;;;2.72;1.30;;;6.90;99.90;;;;;;4096788;28;20449;-67
2024/02/24 10:13:53;;;;;;;2.05;1.02;;;7.00;99.90;;;;;;4094319;28;20444;-67
2024/02/24 10:15:53;;;;;;;;;;;7.10;99.90;;;;;;4094766;28;20054;-67
2024/02/24 10:17:56;;;;;;;2.20;0.88;;;7.20;99.90;;;;;;4096951;28;20312;-68
2024/02/24 10:19:57;;;;;;;1.80;0.70;;;7.30;99.90;;;;;;4095618;28;20040;-69
2024/02/24 10:22:01;;;;;;;1.17;0.65;;;7.40;99.90;;;;;;4093312;28;20039;-69
2024/02/24 10:24:02;;;;;;;4.07;1.13;;;7.40;99.90;;;;;;4094520;28;20055;-69
2024/02/24 10:26:03;;;;;;;2.55;0.95;;;7.40;99.90;;;;;;4096414;28;20406;-69
2024/02/24 10:28:05;;;;;;;1.67;1.08;;;7.50;99.90;;;;;;4096554;28;20039;-68
2024/02/24 10:30:06;;;;;;;2.88;1.25;;;7.50;99.90;;;;;;4093323;28;20596;-69
2024/02/24 10:32:07;;;;;;;2.88;1.50;;;7.50;99.90;;;;;;4098207;28;20047;-69
2024/02/24 10:34:08;;;;;;;1.25;1.05;;;7.40;99.90;;;;;;4081064;28;20118;-70
2024/02/24 10:36:09;;;;;;;3.65;1.30;;;7.40;99.90;;;;;;4089432;28;20563;-69
2024/02/24 10:38:12;;;;;;;1.45;1.15;;;7.50;99.90;;;;;;4091873;28;20520;-69